Time;durP1;ratioP1;P1;durP2;ratioP2;P2;SDS_P1;SDS_P2;PMS_P1;PMS_P2;Temp;Humidity;BMP_temperature;BMP_pressure;BME280_temperature;BME280_humidity;BME280_pressure;Samples;Min_cycle;Max_cycle;Signal;HPM_P1;HPM_P2
2023/01/29 00:01:55;;;;;;;13.50;7.43;;;4.30;99.90;;;;;;5036136;28;20390;-62
2023/01/29 00:04:21;;;;;;;16.52;8.48;;;4.30;99.90;;;;;;5052768;28;20037;-62
2023/01/29 00:06:47;;;;;;;12.73;7.43;;;4.30;99.90;;;;;;5034929;28;20489;-62
2023/01/29 00:09:12;;;;;;;15.23;9.68;;;4.30;99.90;;;;;;5036570;28;20136;-62
2023/01/29 00:11:38;;;;;;;9.82;6.97;;;4.30;99.90;;;;;;5052248;28;20075;-62
2023/01/29 00:14:05;;;;;;;14.52;8.52;;;4.40;99.90;;;;;;5051690;28;20512;-62
2023/01/29 00:16:30;;;;;;;16.27;8.52;;;4.40;99.90;;;;;;5052181;28;20572;-62
2023/01/29 00:18:56;;;;;;;11.45;8.43;;;4.40;99.90;;;;;;5035275;28;20129;-62
2023/01/29 00:21:22;;;;;;;16.08;9.18;;;4.40;99.90;;;;;;5052068;28;20033;-62
2023/01/29 00:23:48;;;;;;;14.20;8.20;;;4.40;99.90;;;;;;5035291;28;20047;-62
2023/01/29 00:26:16;;;;;;;14.18;8.35;;;4.40;99.90;;;;;;5052458;28;20055;-62
2023/01/29 00:28:42;;;;;;;15.15;8.80;;;4.40;99.90;;;;;;5051148;28;20060;-62
2023/01/29 00:31:09;;;;;;;13.23;7.90;;;4.40;99.90;;;;;;5053607;28;20083;-62
2023/01/29 00:33:35;;;;;;;14.35;8.40;;;4.40;99.90;;;;;;5051528;28;20516;-62
2023/01/29 00:36:05;;;;;;;13.95;9.35;;;4.40;99.90;;;;;;5049252;28;20051;-62
2023/01/29 00:38:33;;;;;;;18.08;10.07;;;4.40;99.90;;;;;;5015189;28;20057;-62
2023/01/29 00:46:53;;;;;;;15.52;9.23;;;4.50;99.90;;;;;;5032266;28;20049;-62
2023/01/29 00:49:19;;;;;;;15.07;8.68;;;4.50;99.90;;;;;;5015121;28;20393;-62
2023/01/29 00:52:22;;;;;;;16.30;9.40;;;4.50;99.90;;;;;;5038919;28;20090;-63
2023/01/29 00:54:30;;;;;;;;;;;4.50;99.90;;;;;;5051276;28;20438;-62
2023/01/29 00:56:56;;;;;;;14.50;8.55;;;4.50;99.90;;;;;;5050987;28;20019;-62
2023/01/29 00:59:22;;;;;;;16.20;9.07;;;4.50;99.90;;;;;;5052062;28;20040;-63
2023/01/29 01:04:31;;;;;;;11.50;7.68;;;4.50;99.90;;;;;;5051287;28;20166;-62
2023/01/29 01:06:57;;;;;;;15.75;8.13;;;4.50;99.90;;;;;;5051553;28;20052;-62
2023/01/29 01:12:07;;;;;;;12.25;7.88;;;4.50;99.90;;;;;;5052693;28;20132;-62
2023/01/29 01:14:34;;;;;;;13.18;7.90;;;4.50;99.90;;;;;;5034405;28;20128;-62
2023/01/29 01:17:00;;;;;;;15.40;9.65;;;4.50;99.90;;;;;;5050757;28;20049;-62
2023/01/29 01:19:26;;;;;;;12.50;7.95;;;4.50;99.90;;;;;;5051108;28;20078;-62
2023/01/29 01:21:52;;;;;;;11.80;7.57;;;4.50;99.90;;;;;;5051338;28;20124;-63
2023/01/29 01:24:19;;;;;;;13.10;7.38;;;4.50;99.90;;;;;;5050807;28;20512;-62
2023/01/29 01:26:45;;;;;;;16.98;7.63;;;4.50;99.90;;;;;;5033793;28;20490;-62
2023/01/29 01:29:10;;;;;;;12.43;7.88;;;4.50;99.90;;;;;;5051064;28;20095;-62
2023/01/29 01:31:36;;;;;;;11.77;7.82;;;4.50;99.90;;;;;;5049826;28;20037;-62
2023/01/29 01:34:02;;;;;;;14.38;7.85;;;4.50;99.90;;;;;;5051323;28;20049;-62
2023/01/29 01:36:28;;;;;;;12.05;6.70;;;4.50;99.90;;;;;;5050965;28;20052;-62
2023/01/29 01:38:53;;;;;;;14.02;8.13;;;4.50;99.90;;;;;;5050333;28;20053;-63
2023/01/29 01:41:20;;;;;;;14.00;8.30;;;4.50;99.90;;;;;;5051103;28;20076;-63
2023/01/29 01:43:56;;;;;;;14.90;7.72;;;4.50;99.90;;;;;;5050154;28;20079;-62
2023/01/29 01:46:23;;;;;;;14.73;8.02;;;4.50;99.90;;;;;;5051499;28;20037;-62
2023/01/29 01:49:04;;;;;;;14.38;9.27;;;4.50;99.90;;;;;;5050761;28;20041;-62
2023/01/29 01:51:32;;;;;;;17.25;9.45;;;4.50;99.90;;;;;;5033058;28;20561;-62
2023/01/29 01:54:01;;;;;;;15.15;8.85;;;4.50;99.90;;;;;;5050179;28;20143;-62
2023/01/29 01:56:37;;;;;;;13.65;8.63;;;4.50;99.90;;;;;;5050289;28;20040;-62
2023/01/29 01:59:05;;;;;;;15.90;8.77;;;4.50;99.90;;;;;;5045966;28;20045;-62
2023/01/29 02:01:31;;;;;;;16.77;9.55;;;4.50;99.90;;;;;;5014157;28;20084;-62
2023/01/29 02:10:11;;;;;;;16.08;9.88;;;4.50;99.90;;;;;;5030920;28;20552;-62
2023/01/29 02:12:37;;;;;;;16.25;9.80;;;4.50;99.90;;;;;;5029684;28;20144;-62
2023/01/29 02:15:04;;;;;;;17.27;10.23;;;4.50;99.90;;;;;;5044619;28;20036;-62
2023/01/29 02:17:31;;;;;;;14.77;10.18;;;4.50;99.90;;;;;;5051281;28;20033;-62
2023/01/29 02:20:14;;;;;;;17.40;10.77;;;4.50;99.90;;;;;;5050041;28;20128;-62
2023/01/29 02:23:21;;;;;;;16.73;10.35;;;4.50;99.90;;;;;;5050016;28;20041;-62
2023/01/29 02:26:21;;;;;;;19.80;12.60;;;4.50;99.90;;;;;;5050069;28;20056;-62
2023/01/29 02:29:24;;;;;;;17.92;11.48;;;4.50;99.90;;;;;;5028723;28;20048;-62
2023/01/29 02:32:19;;;;;;;18.65;11.90;;;4.50;99.90;;;;;;5031456;28;20049;-62
2023/01/29 02:37:55;;;;;;;20.13;12.60;;;4.50;99.90;;;;;;5029991;28;20132;-62
2023/01/29 02:40:45;;;;;;;20.38;13.23;;;4.40;99.90;;;;;;5014440;28;20103;-62
2023/01/29 02:43:24;;;;;;;21.10;13.85;;;4.40;99.90;;;;;;5030801;28;20093;-63
2023/01/29 02:46:14;;;;;;;20.58;13.85;;;4.40;99.90;;;;;;5017770;28;20036;-62
2023/01/29 02:48:51;;;;;;;23.13;13.98;;;4.40;99.90;;;;;;5032860;28;20048;-62
2023/01/29 02:51:23;;;;;;;21.92;14.73;;;4.40;99.90;;;;;;5044552;28;20060;-62
2023/01/29 02:54:07;;;;;;;22.38;14.20;;;4.40;99.90;;;;;;5013558;28;20248;-62
2023/01/29 02:56:57;;;;;;;21.50;15.02;;;4.40;99.90;;;;;;5029372;28;20040;-62
2023/01/29 02:59:54;;;;;;;26.40;15.95;;;4.40;99.90;;;;;;5030393;28;20040;-62
2023/01/29 03:02:45;;;;;;;23.80;14.70;;;4.40;99.90;;;;;;5029886;28;20041;-62
2023/01/29 03:05:17;;;;;;;24.25;14.32;;;4.40;99.90;;;;;;5033185;28;20033;-62
2023/01/29 03:07:50;;;;;;;24.38;16.13;;;4.40;99.90;;;;;;5033271;28;20049;-62
2023/01/29 03:10:29;;;;;;;23.88;15.45;;;4.30;99.90;;;;;;5033555;28;20041;-62
2023/01/29 03:13:27;;;;;;;22.58;14.30;;;4.30;99.90;;;;;;5017370;28;20038;-62
2023/01/29 03:16:19;;;;;;;21.85;14.35;;;4.30;99.90;;;;;;5016672;28;20044;-62
2023/01/29 03:18:52;;;;;;;25.33;16.63;;;4.30;99.90;;;;;;5025225;28;20055;-62
2023/01/29 03:32:29;;;;;;;;;;;4.30;99.90;;;;;;5033819;28;20504;-62
2023/01/29 03:35:00;;;;;;;22.92;14.98;;;4.30;99.90;;;;;;5034768;28;19924;-62
2023/01/29 03:37:33;;;;;;;22.27;14.90;;;4.30;99.90;;;;;;5016019;28;20100;-62
2023/01/29 03:40:00;;;;;;;24.20;14.82;;;4.30;99.90;;;;;;5017333;28;20136;-62
2023/01/29 03:42:51;;;;;;;23.13;14.88;;;4.30;99.90;;;;;;5033209;28;20041;-62
2023/01/29 03:45:17;;;;;;;27.52;16.88;;;4.30;99.90;;;;;;5032715;28;20045;-62
2023/01/29 03:47:50;;;;;;;23.40;15.38;;;4.30;99.90;;;;;;5032936;28;20436;-62
2023/01/29 03:50:25;;;;;;;25.23;15.82;;;4.30;99.90;;;;;;5043984;28;20394;-62
2023/01/29 03:52:59;;;;;;;27.65;16.45;;;4.30;99.90;;;;;;5052117;28;20112;-62
2023/01/29 03:55:43;;;;;;;25.42;16.40;;;4.30;99.90;;;;;;5036307;28;20037;-62
2023/01/29 03:58:12;;;;;;;26.73;16.45;;;4.30;99.90;;;;;;5052234;28;20052;-62
2023/01/29 04:00:44;;;;;;;29.67;16.75;;;4.30;99.90;;;;;;5035796;28;20071;-62
2023/01/29 04:03:32;;;;;;;28.60;18.63;;;4.30;99.90;;;;;;5036227;28;20037;-62
2023/01/29 04:06:26;;;;;;;26.05;16.85;;;4.30;99.90;;;;;;5052836;28;20047;-62
2023/01/29 04:09:01;;;;;;;29.48;18.70;;;4.30;99.90;;;;;;5050579;28;20061;-62
2023/01/29 04:11:29;;;;;;;29.15;18.65;;;4.30;99.90;;;;;;5052098;28;20068;-62
2023/01/29 04:13:56;;;;;;;27.65;18.67;;;4.30;99.90;;;;;;5035205;28;20537;-62
2023/01/29 04:16:32;;;;;;;28.10;19.13;;;4.30;99.90;;;;;;5052950;28;20048;-62
2023/01/29 04:18:59;;;;;;;30.73;19.73;;;4.30;99.90;;;;;;5035760;28;20386;-62
2023/01/29 04:21:25;;;;;;;29.85;18.73;;;4.30;99.90;;;;;;5031537;28;20041;-62
2023/01/29 04:23:51;;;;;;;30.05;16.90;;;4.30;99.90;;;;;;5049276;28;20116;-62
2023/01/29 04:26:26;;;;;;;26.85;17.60;;;4.30;99.90;;;;;;5050578;28;20080;-62
2023/01/29 04:29:23;;;;;;;25.05;15.95;;;4.30;99.90;;;;;;5053550;28;20059;-62
2023/01/29 04:32:31;;;;;;;26.25;16.20;;;4.30;99.90;;;;;;5053383;28;20072;-62
2023/01/29 04:35:26;;;;;;;24.92;16.42;;;4.40;99.90;;;;;;5048029;28;20496;-62
2023/01/29 04:38:07;;;;;;;25.95;16.92;;;4.40;99.90;;;;;;5044309;28;20057;-62
2023/01/29 04:40:51;;;;;;;28.52;16.88;;;4.30;99.90;;;;;;5052174;28;20052;-62
2023/01/29 04:43:29;;;;;;;26.05;16.42;;;4.40;99.90;;;;;;5052164;28;20147;-62
2023/01/29 04:46:06;;;;;;;26.58;15.55;;;4.40;99.90;;;;;;5053620;28;20037;-62
2023/01/29 04:48:55;;;;;;;26.08;15.77;;;4.40;99.90;;;;;;5050791;28;20474;-62
2023/01/29 04:51:21;;;;;;;25.23;15.75;;;4.40;99.90;;;;;;5029110;28;20087;-62
2023/01/29 04:54:35;;;;;;;23.35;16.50;;;4.40;99.90;;;;;;5032663;28;20085;-62
2023/01/29 04:57:04;;;;;;;25.42;14.85;;;4.40;99.90;;;;;;5024802;28;20041;-62
2023/01/29 04:59:34;;;;;;;25.10;16.38;;;4.40;99.90;;;;;;5031384;28;20548;-62
2023/01/29 05:02:01;;;;;;;23.67;15.15;;;4.40;99.90;;;;;;5014594;28;20482;-62
2023/01/29 05:04:31;;;;;;;28.30;16.83;;;4.40;99.90;;;;;;5031134;28;20133;-62
2023/01/29 05:07:01;;;;;;;22.08;14.95;;;4.30;99.90;;;;;;5033632;28;20379;-62
2023/01/29 05:09:26;;;;;;;21.15;13.73;;;4.30;99.90;;;;;;5033499;28;20119;-62
2023/01/29 05:11:53;;;;;;;21.45;14.48;;;4.40;99.90;;;;;;5051663;28;20129;-62
2023/01/29 05:14:21;;;;;;;22.52;14.93;;;4.40;99.90;;;;;;5052780;28;20091;-62
2023/01/29 05:16:51;;;;;;;22.75;14.93;;;4.40;99.90;;;;;;5050170;28;20057;-62
2023/01/29 05:19:17;;;;;;;25.63;15.73;;;4.40;99.90;;;;;;5034991;28;20045;-62
2023/01/29 05:21:46;;;;;;;20.80;14.55;;;4.40;99.90;;;;;;5050959;28;20074;-62
2023/01/29 05:24:24;;;;;;;21.05;13.73;;;4.40;99.90;;;;;;5050411;28;20052;-62
2023/01/29 05:29:36;;;;;;;22.33;14.00;;;4.50;99.90;;;;;;5030054;28;20052;-62
2023/01/29 05:32:02;;;;;;;22.42;14.30;;;4.50;99.90;;;;;;5031663;28;20128;-62
2023/01/29 05:34:28;;;;;;;23.92;14.32;;;4.50;99.90;;;;;;5014158;28;20490;-62
2023/01/29 05:36:54;;;;;;;20.42;13.32;;;4.50;99.90;;;;;;5031936;28;20431;-62
2023/01/29 05:39:20;;;;;;;20.90;13.75;;;4.50;99.90;;;;;;5032392;28;20088;-62
2023/01/29 05:41:45;;;;;;;19.58;13.00;;;4.50;99.90;;;;;;5030631;28;20128;-62
2023/01/29 05:44:11;;;;;;;22.88;12.82;;;4.50;99.90;;;;;;5030381;28;20456;-62
2023/01/29 05:46:37;;;;;;;20.00;13.95;;;4.50;99.90;;;;;;5030932;28;20128;-62
2023/01/29 05:49:04;;;;;;;20.60;13.13;;;4.60;99.90;;;;;;5031348;28;20048;-62
2023/01/29 05:51:29;;;;;;;18.98;13.30;;;4.60;99.90;;;;;;5029921;28;20048;-62
2023/01/29 05:53:55;;;;;;;20.25;12.45;;;4.60;99.90;;;;;;5014611;28;20037;-62
2023/01/29 05:56:21;;;;;;;23.75;15.18;;;4.60;99.90;;;;;;5032519;28;20048;-62
2023/01/29 05:58:47;;;;;;;20.65;14.13;;;4.60;99.90;;;;;;5048953;28;20041;-62
2023/01/29 06:01:18;;;;;;;26.52;15.40;;;4.60;99.90;;;;;;5030970;28;20116;-62
2023/01/29 06:03:44;;;;;;;24.40;16.30;;;4.60;99.90;;;;;;5030352;28;20056;-62
2023/01/29 06:06:11;;;;;;;23.05;15.63;;;4.60;99.90;;;;;;5030364;28;20073;-62
2023/01/29 06:08:37;;;;;;;22.75;15.48;;;4.60;99.90;;;;;;5031709;28;20402;-62
2023/01/29 06:11:03;;;;;;;25.95;16.02;;;4.50;99.90;;;;;;5014670;28;20048;-62
2023/01/29 06:13:29;;;;;;;28.02;15.60;;;4.60;99.90;;;;;;5030578;28;20046;-62
2023/01/29 06:15:54;;;;;;;24.08;16.92;;;4.50;99.90;;;;;;5051764;28;20100;-62
2023/01/29 06:18:20;;;;;;;28.10;17.23;;;4.50;99.90;;;;;;5050653;28;20091;-62
2023/01/29 06:20:46;;;;;;;25.73;17.98;;;4.50;99.90;;;;;;5032801;28;20453;-62
2023/01/29 06:23:11;;;;;;;29.25;16.85;;;4.50;99.90;;;;;;5050714;28;20406;-62
2023/01/29 06:25:37;;;;;;;28.50;15.88;;;4.50;99.90;;;;;;5050027;28;20037;-62
2023/01/29 06:28:03;;;;;;;22.85;16.38;;;4.50;99.90;;;;;;5051329;28;20432;-62
2023/01/29 06:30:28;;;;;;;26.80;17.77;;;4.50;99.90;;;;;;5050066;28;20098;-62
2023/01/29 06:32:57;;;;;;;25.58;16.83;;;4.50;99.90;;;;;;5049130;28;20048;-62
2023/01/29 06:35:26;;;;;;;32.33;18.13;;;4.50;99.90;;;;;;5050383;28;20041;-62
2023/01/29 06:37:52;;;;;;;28.10;17.70;;;4.60;99.90;;;;;;5050325;28;20095;-62
2023/01/29 06:40:18;;;;;;;30.52;18.92;;;4.50;99.90;;;;;;5051651;28;20052;-62
2023/01/29 06:42:44;;;;;;;29.02;18.02;;;4.50;99.90;;;;;;5037193;28;20125;-62
2023/01/29 06:45:10;;;;;;;31.17;19.83;;;4.50;99.90;;;;;;5054763;28;20052;-62
2023/01/29 06:47:36;;;;;;;27.13;18.90;;;4.50;99.90;;;;;;5036387;28;20048;-62
2023/01/29 06:50:02;;;;;;;29.92;19.27;;;4.50;99.90;;;;;;5051625;28;20037;-62
2023/01/29 06:52:28;;;;;;;30.42;21.15;;;4.50;99.90;;;;;;5033690;28;20045;-63
2023/01/29 06:54:57;;;;;;;31.30;20.17;;;4.50;99.90;;;;;;5051302;28;20049;-63
2023/01/29 06:57:23;;;;;;;30.42;20.98;;;4.50;99.90;;;;;;5054450;28;20474;-62
2023/01/29 06:59:48;;;;;;;35.55;21.67;;;4.50;99.90;;;;;;5053419;28;20127;-62
2023/01/29 07:02:14;;;;;;;31.02;19.63;;;4.40;99.90;;;;;;5054682;28;20077;-62
2023/01/29 07:04:41;;;;;;;29.80;20.00;;;4.40;99.90;;;;;;5054732;28;20044;-62
2023/01/29 07:07:12;;;;;;;35.33;21.75;;;4.40;99.90;;;;;;5054405;28;20119;-62
2023/01/29 07:09:40;;;;;;;32.58;20.35;;;4.40;99.90;;;;;;5053833;28;20453;-62
2023/01/29 07:12:07;;;;;;;29.77;19.92;;;4.40;99.90;;;;;;5049030;28;20041;-62
2023/01/29 07:14:33;;;;;;;33.05;21.02;;;4.40;99.90;;;;;;5042135;28;20102;-62
2023/01/29 07:16:58;;;;;;;30.42;20.25;;;4.40;99.90;;;;;;5049465;28;20036;-62
2023/01/29 07:19:24;;;;;;;32.53;20.35;;;4.40;99.90;;;;;;5051615;28;20049;-62
2023/01/29 07:21:50;;;;;;;33.75;20.88;;;4.40;99.90;;;;;;5038605;28;20441;-63
2023/01/29 07:24:15;;;;;;;32.42;21.80;;;4.40;99.90;;;;;;5022570;28;20037;-63
2023/01/29 07:26:41;;;;;;;29.98;19.92;;;4.40;99.90;;;;;;5039400;28;20131;-62
2023/01/29 07:29:07;;;;;;;31.00;20.88;;;4.40;99.90;;;;;;5018883;28;20421;-62
2023/01/29 07:31:33;;;;;;;32.42;19.75;;;4.40;99.90;;;;;;5052160;28;20047;-63
2023/01/29 07:33:58;;;;;;;34.50;19.23;;;4.40;99.90;;;;;;5044367;28;20402;-62
2023/01/29 07:36:24;;;;;;;30.98;20.77;;;4.40;99.90;;;;;;5051269;28;20931;-63
2023/01/29 07:38:50;;;;;;;37.13;21.42;;;4.40;99.90;;;;;;5049215;28;20057;-62
2023/01/29 07:41:16;;;;;;;35.95;21.58;;;4.40;99.90;;;;;;5042984;28;20049;-62
2023/01/29 07:43:42;;;;;;;34.58;22.63;;;4.40;99.90;;;;;;5028463;28;20041;-62
2023/01/29 07:46:08;;;;;;;38.45;24.98;;;4.40;99.90;;;;;;5049088;28;20386;-62
2023/01/29 07:48:34;;;;;;;42.47;25.17;;;4.40;99.90;;;;;;5029977;28;20482;-62
2023/01/29 07:50:59;;;;;;;36.60;23.73;;;4.40;99.90;;;;;;5029200;28;20397;-62
2023/01/29 07:53:26;;;;;;;41.47;26.02;;;4.40;99.90;;;;;;5033712;28;20443;-62
2023/01/29 07:55:52;;;;;;;38.90;23.65;;;4.40;99.90;;;;;;5036706;28;20048;-62
2023/01/29 07:58:17;;;;;;;38.70;24.48;;;4.40;99.90;;;;;;5042319;28;20045;-62
2023/01/29 08:00:43;;;;;;;37.45;24.67;;;4.40;99.90;;;;;;5013976;28;20092;-63
2023/01/29 08:03:15;;;;;;;48.90;27.90;;;4.40;99.90;;;;;;5035047;28;20048;-62
2023/01/29 08:05:44;;;;;;;41.13;26.48;;;4.40;99.90;;;;;;5048530;28;20045;-62
2023/01/29 08:08:11;;;;;;;42.17;26.42;;;4.40;99.90;;;;;;5033499;28;20037;-62
2023/01/29 08:10:38;;;;;;;44.22;26.48;;;4.40;99.90;;;;;;5051284;28;20037;-63
2023/01/29 08:13:04;;;;;;;43.60;27.92;;;4.40;99.90;;;;;;5047675;28;20588;-62
2023/01/29 08:15:31;;;;;;;43.50;27.50;;;4.40;99.90;;;;;;5039538;28;20041;-62
2023/01/29 08:17:57;;;;;;;41.97;27.83;;;4.40;99.90;;;;;;5031236;28;20033;-63
2023/01/29 08:20:22;;;;;;;50.33;29.73;;;4.50;99.90;;;;;;5050274;28;20047;-62
2023/01/29 08:22:48;;;;;;;40.35;26.80;;;4.40;99.90;;;;;;5048801;28;20124;-62
2023/01/29 08:25:15;;;;;;;46.10;29.20;;;4.50;99.90;;;;;;5031826;28;20040;-63
2023/01/29 08:27:41;;;;;;;44.45;27.60;;;4.50;99.90;;;;;;5046598;28;20115;-62
2023/01/29 08:30:08;;;;;;;48.65;30.67;;;4.50;99.90;;;;;;5042002;28;20072;-62
2023/01/29 08:32:34;;;;;;;49.45;30.00;;;4.50;99.90;;;;;;5042966;28;20045;-62
2023/01/29 08:35:00;;;;;;;46.55;29.65;;;4.50;99.90;;;;;;5049434;28;20033;-62
2023/01/29 08:37:26;;;;;;;45.40;29.15;;;4.50;99.90;;;;;;5049360;28;20051;-62
2023/01/29 08:39:51;;;;;;;45.88;28.77;;;4.50;99.90;;;;;;5049209;28;20091;-62
2023/01/29 08:42:17;;;;;;;45.25;28.40;;;4.50;99.90;;;;;;5038462;28;20073;-63
2023/01/29 08:44:42;;;;;;;41.58;26.35;;;4.50;99.90;;;;;;5012986;28;20048;-63
2023/01/29 08:47:08;;;;;;;43.65;28.23;;;4.50;99.90;;;;;;5030240;28;20037;-62
2023/01/29 08:49:34;;;;;;;43.00;26.73;;;4.50;99.90;;;;;;5029036;28;20048;-63
2023/01/29 08:51:59;;;;;;;42.72;27.00;;;4.50;99.90;;;;;;5035421;28;20075;-62
2023/01/29 08:54:25;;;;;;;46.95;29.48;;;4.60;99.90;;;;;;5039688;28;20077;-62
2023/01/29 08:56:51;;;;;;;49.10;29.67;;;4.60;99.90;;;;;;5036036;28;20064;-62
2023/01/29 08:59:17;;;;;;;44.75;27.58;;;4.60;99.90;;;;;;5037396;28;20044;-62
2023/01/29 09:01:43;;;;;;;43.53;28.80;;;4.60;99.90;;;;;;5035617;28;20403;-62
2023/01/29 09:04:09;;;;;;;42.22;26.88;;;4.60;99.90;;;;;;5046985;28;20037;-62
2023/01/29 09:06:34;;;;;;;40.95;27.33;;;4.60;99.90;;;;;;5036795;28;20456;-62
2023/01/29 09:09:00;;;;;;;44.00;28.27;;;4.70;99.90;;;;;;5050076;28;20045;-62
2023/01/29 09:11:26;;;;;;;40.83;27.27;;;4.70;99.90;;;;;;5049224;28;20037;-62
2023/01/29 09:13:51;;;;;;;39.75;27.00;;;4.70;99.90;;;;;;5041335;28;20041;-62
2023/01/29 09:16:17;;;;;;;43.85;25.88;;;4.70;99.90;;;;;;5045758;28;20037;-62
2023/01/29 09:18:43;;;;;;;40.70;25.80;;;4.70;99.90;;;;;;5030553;28;20071;-62
2023/01/29 09:21:09;;;;;;;40.70;25.27;;;4.70;99.90;;;;;;5038112;28;20551;-63
2023/01/29 09:23:34;;;;;;;44.33;27.23;;;4.80;99.90;;;;;;5042442;28;20044;-63
2023/01/29 09:26:00;;;;;;;43.35;25.98;;;4.80;99.90;;;;;;5046628;28;20051;-62
2023/01/29 09:28:26;;;;;;;44.58;27.77;;;4.80;99.90;;;;;;5044062;28;20791;-62
2023/01/29 09:30:52;;;;;;;46.45;26.15;;;4.80;99.90;;;;;;5055708;28;20053;-63
2023/01/29 09:33:17;;;;;;;42.60;27.02;;;4.80;99.90;;;;;;5037319;28;20033;-62
2023/01/29 09:35:45;;;;;;;38.72;24.42;;;4.80;99.90;;;;;;5033737;28;20026;-62
2023/01/29 09:38:12;;;;;;;42.45;26.20;;;4.80;99.90;;;;;;5044158;28;20057;-62
2023/01/29 09:40:52;;;;;;;39.35;25.92;;;4.80;99.90;;;;;;5026642;28;20448;-62
2023/01/29 09:43:26;;;;;;;44.33;25.40;;;4.80;99.90;;;;;;5040109;28;20604;-62
2023/01/29 09:46:16;;;;;;;46.33;26.60;;;4.90;99.90;;;;;;5041638;28;20055;-62
2023/01/29 09:48:44;;;;;;;41.40;23.80;;;4.80;99.90;;;;;;5059240;28;20113;-62
2023/01/29 09:51:24;;;;;;;42.33;25.10;;;4.90;99.90;;;;;;5029414;28;20039;-63
2023/01/29 09:54:14;;;;;;;40.00;24.50;;;4.90;99.90;;;;;;5039624;28;20080;-63
2023/01/29 09:56:42;;;;;;;44.65;26.30;;;4.90;99.90;;;;;;5042931;28;20394;-62
2023/01/29 09:59:11;;;;;;;37.78;24.33;;;4.90;99.90;;;;;;5029276;28;20549;-62
2023/01/29 10:02:16;;;;;;;40.80;23.52;;;4.90;99.90;;;;;;5031690;28;20144;-62
2023/01/29 10:05:07;;;;;;;44.00;24.38;;;5.00;99.90;;;;;;5000798;28;20045;-62
2023/01/29 10:08:02;;;;;;;39.00;24.92;;;4.90;99.90;;;;;;5048256;28;20040;-62
2023/01/29 10:10:53;;;;;;;42.00;25.50;;;5.00;99.90;;;;;;5045889;28;20048;-63
2023/01/29 10:13:45;;;;;;;40.38;24.60;;;5.00;99.90;;;;;;5030261;28;20045;-62
2023/01/29 10:16:28;;;;;;;42.90;26.13;;;5.00;99.90;;;;;;5031902;28;20494;-62
2023/01/29 10:19:13;;;;;;;41.53;24.88;;;5.00;99.90;;;;;;5038551;28;20040;-62
2023/01/29 10:21:55;;;;;;;44.30;26.38;;;5.00;99.90;;;;;;5015921;28;20081;-62
2023/01/29 10:24:29;;;;;;;39.47;24.45;;;5.00;99.90;;;;;;5045819;28;20540;-63
2023/01/29 10:26:55;;;;;;;39.28;24.10;;;5.00;99.90;;;;;;5043973;28;20041;-63
2023/01/29 10:29:22;;;;;;;42.40;25.92;;;5.00;99.90;;;;;;5030672;28;20046;-62
2023/01/29 10:32:04;;;;;;;41.15;25.85;;;5.00;99.90;;;;;;5029196;28;20137;-62
2023/01/29 10:34:43;;;;;;;42.33;24.40;;;5.00;99.90;;;;;;5046491;28;20055;-62
2023/01/29 10:37:23;;;;;;;36.15;23.73;;;5.00;99.90;;;;;;5037745;28;20049;-62
2023/01/29 10:39:49;;;;;;;38.92;23.40;;;5.00;99.90;;;;;;5046878;28;20526;-62
2023/01/29 10:42:37;;;;;;;48.55;26.20;;;5.00;99.90;;;;;;5021433;28;20045;-62
2023/01/29 10:45:14;;;;;;;46.17;24.58;;;5.00;99.90;;;;;;5047047;28;20056;-62
2023/01/29 10:48:03;;;;;;;43.58;23.52;;;5.10;99.90;;;;;;5031605;28;20120;-62
2023/01/29 10:50:40;;;;;;;35.25;21.63;;;5.00;99.90;;;;;;5015280;28;20083;-62
2023/01/29 10:53:50;;;;;;;38.75;22.75;;;5.10;99.90;;;;;;5032708;28;20053;-62
2023/01/29 10:56:31;;;;;;;38.33;22.33;;;5.10;99.90;;;;;;5006538;28;20095;-62
2023/01/29 10:59:25;;;;;;;38.67;23.48;;;5.10;99.90;;;;;;5035416;28;20041;-62
2023/01/29 11:01:58;;;;;;;38.25;21.15;;;5.10;99.90;;;;;;5029908;28;20852;-63
2023/01/29 11:04:27;;;;;;;36.53;22.42;;;5.20;99.90;;;;;;5052837;28;20045;-62
2023/01/29 11:06:53;;;;;;;40.67;23.30;;;5.20;99.90;;;;;;5041865;28;20102;-62
2023/01/29 11:09:45;;;;;;;43.28;25.10;;;5.20;99.90;;;;;;5050633;28;20060;-62
2023/01/29 11:12:15;;;;;;;45.28;25.35;;;5.30;99.90;;;;;;5051091;28;20132;-62
2023/01/29 11:14:51;;;;;;;38.67;23.33;;;5.20;99.90;;;;;;5033280;28;20080;-62
2023/01/29 11:17:26;;;;;;;38.10;20.45;;;5.30;99.90;;;;;;5051208;28;20044;-62
2023/01/29 11:19:57;;;;;;;32.38;20.77;;;5.30;99.90;;;;;;5031577;28;20038;-62
2023/01/29 11:22:27;;;;;;;32.35;18.00;;;5.40;99.90;;;;;;5043531;28;20166;-62
2023/01/29 11:25:16;;;;;;;33.78;18.35;;;5.40;99.90;;;;;;5034797;28;20049;-62
2023/01/29 11:27:52;;;;;;;28.35;17.08;;;5.40;99.90;;;;;;5050811;28;20044;-62
2023/01/29 11:30:30;;;;;;;28.88;17.30;;;5.50;99.90;;;;;;5031514;28;20046;-62
2023/01/29 11:33:11;;;;;;;28.55;17.73;;;5.50;99.90;;;;;;5056133;28;20044;-62
2023/01/29 11:35:37;;;;;;;27.60;16.67;;;5.50;99.90;;;;;;5039294;28;20044;-62
2023/01/29 11:38:07;;;;;;;27.80;16.83;;;5.60;99.90;;;;;;5050683;28;20052;-63
2023/01/29 11:40:38;;;;;;;26.10;15.68;;;5.50;99.90;;;;;;5050510;28;20501;-63
2023/01/29 11:43:29;;;;;;;28.30;16.00;;;5.60;99.90;;;;;;5033857;28;20126;-63
2023/01/29 11:45:59;;;;;;;26.30;15.77;;;5.60;99.90;;;;;;5052541;28;20426;-62
2023/01/29 11:48:39;;;;;;;30.60;17.15;;;5.60;99.90;;;;;;5051886;28;20072;-63
2023/01/29 11:51:06;;;;;;;28.95;17.73;;;5.60;99.90;;;;;;5049373;28;20493;-63
2023/01/29 11:53:41;;;;;;;33.15;18.13;;;5.60;99.90;;;;;;5051594;28;20508;-63
2023/01/29 11:56:27;;;;;;;;;;;5.60;99.90;;;;;;5036210;28;20094;-63
2023/01/29 11:58:55;;;;;;;33.35;19.58;;;5.60;99.90;;;;;;5039157;28;19917;-63
2023/01/29 12:01:36;;;;;;;34.72;20.52;;;5.60;99.90;;;;;;5030570;28;20038;-63
2023/01/29 12:04:18;;;;;;;35.50;19.92;;;5.60;99.90;;;;;;5044284;28;20436;-62
2023/01/29 12:06:46;;;;;;;38.10;18.38;;;5.60;99.90;;;;;;5049897;28;20506;-62
2023/01/29 12:09:18;;;;;;;35.22;19.30;;;5.60;99.90;;;;;;5048684;28;20053;-62
2023/01/29 12:11:44;;;;;;;37.90;19.73;;;5.50;99.90;;;;;;5048827;28;20040;-62
2023/01/29 12:14:32;;;;;;;36.65;21.88;;;5.50;99.90;;;;;;5050447;28;20438;-62
2023/01/29 12:17:10;;;;;;;30.08;18.33;;;5.50;99.90;;;;;;5041720;28;20045;-62
2023/01/29 12:19:43;;;;;;;33.25;19.83;;;5.60;99.90;;;;;;5015018;28;20557;-63
2023/01/29 12:22:20;;;;;;;30.20;19.10;;;5.60;99.90;;;;;;5047411;28;20417;-63
2023/01/29 12:24:58;;;;;;;41.05;22.05;;;5.60;99.90;;;;;;5048743;28;20822;-63
2023/01/29 12:27:30;;;;;;;31.40;19.45;;;5.60;99.90;;;;;;5041146;28;20037;-63
2023/01/29 12:30:24;;;;;;;40.17;18.63;;;5.60;99.90;;;;;;5028739;28;20049;-63
2023/01/29 12:33:21;;;;;;;29.55;17.98;;;5.60;99.90;;;;;;5020101;28;20059;-63
2023/01/29 12:35:53;;;;;;;38.40;21.95;;;5.60;99.90;;;;;;5036682;28;20063;-63
2023/01/29 12:38:23;;;;;;;29.23;18.13;;;5.60;99.90;;;;;;5034706;28;20060;-63
2023/01/29 12:40:54;;;;;;;33.50;19.30;;;5.60;99.90;;;;;;5012358;28;20390;-63
2023/01/29 12:43:48;;;;;;;38.05;21.25;;;5.60;99.90;;;;;;5031101;28;20060;-63
2023/01/29 12:46:27;;;;;;;28.38;17.60;;;5.60;99.90;;;;;;5024417;28;20076;-64
2023/01/29 12:48:57;;;;;;;29.85;18.52;;;5.60;99.90;;;;;;5029417;28;20119;-64
2023/01/29 12:51:33;;;;;;;34.90;22.00;;;5.50;99.90;;;;;;5029802;28;20045;-63
2023/01/29 12:54:15;;;;;;;36.83;22.40;;;5.50;99.90;;;;;;5048829;28;20051;-63
2023/01/29 12:56:52;;;;;;;36.15;21.45;;;5.50;99.90;;;;;;5049259;28;20500;-63
2023/01/29 12:59:19;;;;;;;37.03;21.02;;;5.50;99.90;;;;;;5049360;28;20037;-63
2023/01/29 13:01:53;;;;;;;34.20;20.05;;;5.40;99.90;;;;;;5047833;28;20497;-63
2023/01/29 13:04:40;;;;;;;30.87;20.37;;;5.40;99.90;;;;;;5018473;28;20053;-63
2023/01/29 13:07:18;;;;;;;35.22;22.33;;;5.40;99.90;;;;;;5028796;28;20045;-63
2023/01/29 13:09:49;;;;;;;34.80;20.92;;;5.40;99.90;;;;;;5042295;28;20045;-63
2023/01/29 13:12:19;;;;;;;38.13;22.75;;;5.40;99.90;;;;;;5053619;28;20131;-64
2023/01/29 13:14:59;;;;;;;42.30;25.40;;;5.40;99.90;;;;;;5067507;28;20045;-63
2023/01/29 13:17:43;;;;;;;46.53;27.27;;;5.40;99.90;;;;;;5043037;28;20041;-63
2023/01/29 13:20:19;;;;;;;49.70;28.08;;;5.30;99.90;;;;;;5043879;28;20115;-63
2023/01/29 13:22:47;;;;;;;40.92;26.27;;;5.30;99.90;;;;;;5053121;28;20048;-63
2023/01/29 13:25:18;;;;;;;41.72;26.33;;;5.30;99.90;;;;;;5048709;28;20045;-63
2023/01/29 13:27:46;;;;;;;40.78;25.77;;;5.30;99.90;;;;;;5049742;28;20109;-63
2023/01/29 13:30:30;;;;;;;45.67;27.85;;;5.30;99.90;;;;;;5030030;28;20053;-63
2023/01/29 13:33:08;;;;;;;39.20;23.90;;;5.20;99.90;;;;;;5029015;28;20490;-64
2023/01/29 13:35:40;;;;;;;42.75;23.63;;;5.20;99.90;;;;;;5028178;28;20037;-64
2023/01/29 13:38:22;;;;;;;43.42;24.35;;;5.20;99.90;;;;;;5041354;28;20049;-63
2023/01/29 13:40:49;;;;;;;40.72;24.23;;;5.10;99.90;;;;;;5028630;28;20050;-63